Time;durP1;ratioP1;P1;durP2;ratioP2;P2;SDS_P1;SDS_P2;PMS_P1;PMS_P2;Temp;Humidity;BMP_temperature;BMP_pressure;BME280_temperature;BME280_humidity;BME280_pressure;Samples;Min_cycle;Max_cycle;Signal;HPM_P1;HPM_P2
2021/06/04 00:01:08;;;;;;;8.98;3.40;;;;;;;16.85;52.55;99793.84;391590;101;1962033;-71
2021/06/04 00:02:21;;;;;;;6.47;3.76;;;;;;;16.95;52.62;99785.03;393319;105;1986027;-74
2021/06/04 00:03:27;;;;;;;8.78;4.49;;;;;;;16.81;52.43;99785.33;367845;108;1963950;-76
2021/06/04 00:04:39;;;;;;;13.35;4.16;;;;;;;16.95;52.60;99790.48;393253;104;1985943;-72
2021/06/04 00:05:48;;;;;;;9.29;3.93;;;;;;;16.82;52.73;99783.42;374618;107;1963011;-71
2021/06/04 00:07:11;;;;;;;11.19;3.88;;;;;;;16.82;52.55;99789.70;378283;107;1961036;-72
2021/06/04 00:08:18;;;;;;;10.28;4.32;;;;;;;16.82;52.80;99783.42;365691;111;1960924;-72
2021/06/04 00:09:23;;;;;;;10.55;4.14;;;;;;;16.82;52.69;99784.24;365580;109;1960801;-72
2021/06/04 00:10:34;;;;;;;8.31;4.01;;;;;;;16.82;52.83;99788.88;342109;108;2537907;-72
2021/06/04 00:11:50;;;;;;;9.07;4.27;;;;;;;16.94;53.10;99786.94;398066;104;1986920;-75
2021/06/04 00:13:16;;;;;;;9.21;4.17;;;;;;;16.82;52.88;99794.33;299961;109;2263926;-74
2021/06/04 00:14:25;;;;;;;8.39;3.78;;;;;;;16.79;52.82;99792.92;374459;108;1961925;-76
2021/06/04 00:15:38;;;;;;;7.22;4.18;;;;;;;16.89;52.69;99790.39;392687;104;1985980;-73
2021/06/04 00:16:52;;;;;;;8.69;3.78;;;;;;;16.75;52.59;99786.28;375928;105;1961961;-72
2021/06/04 00:18:05;;;;;;;6.95;3.61;;;;;;;16.84;52.94;99786.73;392946;104;1986058;-72
2021/06/04 00:19:14;;;;;;;8.01;3.60;;;;;;;16.70;52.98;99786.18;376665;106;1962004;-71
2021/06/04 00:20:39;;;;;;;7.31;3.77;;;;;;;16.69;52.79;99792.69;374237;107;1962976;-71
2021/06/04 00:22:05;;;;;;;8.35;4.37;;;;;;;16.79;53.21;99783.91;330030;104;2282035;-71
2021/06/04 00:23:11;;;;;;;9.58;4.74;;;;;;;16.68;53.21;99785.59;371729;107;1962052;-71
2021/06/04 00:24:23;;;;;;;8.41;4.47;;;;;;;16.77;53.17;99784.14;393201;104;1974004;-75
2021/06/04 00:25:30;;;;;;;7.83;4.78;;;;;;;16.66;53.21;99782.27;376270;107;1961921;-73
2021/06/04 00:26:54;;;;;;;9.21;4.60;;;;;;;16.67;53.51;99778.45;374230;107;1962075;-74
2021/06/04 00:28:18;;;;;;;8.89;4.51;;;;;;;16.77;53.88;99780.56;335498;108;2731088;-75
2021/06/04 00:29:23;;;;;;;20.05;5.04;;;;;;;16.65;53.50;99775.17;359110;109;1972029;-71
2021/06/04 00:30:36;;;;;;;11.74;5.72;;;;;;;16.76;53.49;99779.73;392501;103;2072011;-74
2021/06/04 00:31:55;;;;;;;8.43;4.50;;;;;;;16.77;53.93;99780.56;380509;109;1985986;-73
2021/06/04 00:33:00;;;;;;;10.25;5.37;;;;;;;16.65;53.41;99784.17;358302;111;1963974;-73
2021/06/04 00:34:14;;;;;;;11.89;5.97;;;;;;;16.75;53.60;99778.09;368573;104;2375011;-73
2021/06/04 00:35:19;;;;;;;8.35;4.62;;;;;;;16.65;53.85;99783.35;376442;105;1961958;-74
2021/06/04 00:36:28;;;;;;;12.73;5.32;;;;;;;16.64;53.69;99785.23;369022;107;2890036;-73
2021/06/04 00:37:34;;;;;;;11.14;4.98;;;;;;;16.64;53.94;99781.67;359023;107;1962046;-73
2021/06/04 00:38:46;;;;;;;8.61;5.49;;;;;;;16.76;54.18;99787.10;392788;104;1985927;-74
2021/06/04 00:39:52;;;;;;;9.57;5.16;;;;;;;16.64;54.06;99785.23;381795;105;1963035;-75
2021/06/04 00:41:08;;;;;;;9.86;5.07;;;;;;;16.71;54.08;99776.91;397585;103;1973992;-74
2021/06/04 00:42:21;;;;;;;11.63;5.64;;;;;;;16.59;54.01;99781.58;358354;107;1961892;-74
2021/06/04 00:43:46;;;;;;;11.71;5.13;;;;;;;16.56;53.89;99785.61;364662;107;1962024;-74
2021/06/04 00:44:59;;;;;;;12.60;5.60;;;;;;;16.64;53.64;99787.13;347439;104;2761072;-73
2021/06/04 00:46:08;;;;;;;9.40;4.97;;;;;;;16.51;53.71;99784.69;375870;107;1961935;-73
2021/06/04 00:47:21;;;;;;;9.63;4.76;;;;;;;16.62;53.64;99786.57;394499;103;1965070;-74
2021/06/04 00:48:29;;;;;;;9.06;4.73;;;;;;;16.49;53.63;99782.22;363074;109;2921906;-73
2021/06/04 00:49:54;;;;;;;9.42;4.37;;;;;;;16.48;53.56;99788.72;304749;107;2267773;-74
2021/06/04 00:51:39;;;;;;;8.55;4.54;;;;;;;16.59;53.69;99781.58;408250;101;1985899;-74
2021/06/04 00:52:46;;;;;;;11.24;4.86;;;;;;;16.47;53.61;99785.17;381699;103;1962019;-74
2021/06/04 00:53:52;;;;;;;12.02;5.23;;;;;;;16.47;53.65;99790.63;379059;105;1962039;-74
2021/06/04 00:55:08;;;;;;;10.23;5.03;;;;;;;16.58;53.81;99790.84;349253;106;2689934;-73
2021/06/04 00:56:15;;;;;;;9.59;4.78;;;;;;;16.45;53.74;99790.03;341375;107;2507969;-74
2021/06/04 00:57:28;;;;;;;8.84;4.71;;;;;;;16.56;53.90;99782.88;387620;106;1966922;-73
2021/06/04 00:59:01;;;;;;;10.85;5.29;;;;;;;16.52;54.31;99783.63;371747;99;2681012;-72
2021/06/04 01:00:39;;;;;;;8.86;5.02;;;;;;;16.39;54.10;99784.73;393372;100;1962001;-72
2021/06/04 01:01:52;;;;;;;9.40;5.45;;;;;;;16.48;54.34;99778.67;396642;104;1985936;-71
2021/06/04 01:03:18;;;;;;;8.89;5.26;;;;;;;16.36;54.21;99780.59;344855;109;1961956;-72
2021/06/04 01:04:43;;;;;;;10.66;4.71;;;;;;;16.35;54.28;99780.81;368933;109;1963982;-72
2021/06/04 01:05:59;;;;;;;11.36;5.02;;;;;;;16.45;54.47;99776.41;346859;104;2296975;-73
2021/06/04 01:07:18;;;;;;;11.72;4.49;;;;;;;16.34;54.47;99788.17;345944;106;2474936;-74
2021/06/04 01:08:57;;;;;;;15.50;5.21;;;;;;;16.45;54.86;99786.48;369716;99;2666948;-74
2021/06/04 01:10:32;;;;;;;10.07;5.35;;;;;;;16.35;54.85;99797.17;395069;101;1961974;-73
2021/06/04 01:12:05;;;;;;;8.86;5.06;;;;;;;16.45;55.00;99790.03;396477;104;1985975;-74
2021/06/04 01:13:33;;;;;;;11.43;4.98;;;;;;;16.36;54.62;99790.67;334645;110;1962942;-74
2021/06/04 01:15:23;;;;;;;11.96;5.00;;;;;;;16.45;55.24;99786.48;399886;104;1986954;-74
2021/06/04 01:16:51;;;;;;;12.60;5.02;;;;;;;16.34;55.00;99787.35;383989;105;1962005;-73
2021/06/04 01:18:06;;;;;;;11.16;4.64;;;;;;;16.32;54.93;99786.76;348492;107;1963952;-74
2021/06/04 01:19:48;;;;;;;9.26;4.57;;;;;;;16.38;55.10;99789.36;403205;103;1986949;-71
2021/06/04 01:20:57;;;;;;;8.90;5.42;;;;;;;16.24;55.09;99787.95;380237;105;1962039;-72
2021/06/04 01:22:16;;;;;;;9.62;5.11;;;;;;;16.33;55.21;99785.70;393517;104;1986932;-74
2021/06/04 01:23:51;;;;;;;12.08;5.37;;;;;;;16.20;55.48;99786.80;342198;108;1961011;-74
2021/06/04 01:25:04;;;;;;;9.14;4.80;;;;;;;16.18;55.21;99797.09;366488;109;1961987;-74
2021/06/04 01:26:47;;;;;;;9.83;5.63;;;;;;;16.26;55.42;99785.83;387643;104;2953932;-75
2021/06/04 01:28:01;;;;;;;8.32;4.83;;;;;;;16.13;55.34;99791.53;358784;107;1961936;-74
2021/06/04 01:29:42;;;;;;;8.73;4.56;;;;;;;16.22;55.60;99784.63;414420;99;1987813;-74
2021/06/04 01:30:52;;;;;;;7.14;4.56;;;;;;;16.11;55.33;99788.22;396440;101;1961877;-74
2021/06/04 01:32:20;;;;;;;8.74;4.79;;;;;;;16.08;55.37;99786.80;379537;104;1961872;-74
2021/06/04 01:33:42;;;;;;;11.01;4.83;;;;;;;16.20;55.59;99789.52;364090;103;1986973;-74
2021/06/04 01:34:58;;;;;;;8.93;5.30;;;;;;;16.19;55.71;99791.39;404346;101;1985912;-74
2021/06/04 01:36:27;;;;;;;10.69;4.97;;;;;;;16.08;55.56;99791.42;384030;104;1961962;-74
2021/06/04 01:37:40;;;;;;;10.99;4.70;;;;;;;16.18;55.67;99789.75;397869;104;1984780;-72
2021/06/04 01:38:50;;;;;;;8.39;4.18;;;;;;;16.07;55.50;99792.50;364319;107;2923977;-72
2021/06/04 01:40:18;;;;;;;9.82;4.96;;;;;;;16.16;55.75;99786.42;369766;104;2436900;-74
2021/06/04 01:41:29;;;;;;;11.02;5.39;;;;;;;16.03;55.67;99792.95;374321;108;1960897;-74
2021/06/04 01:42:39;;;;;;;8.29;4.85;;;;;;;16.04;55.78;99797.36;374594;105;1961106;-73
2021/06/04 01:43:55;;;;;;;8.22;5.39;;;;;;;16.13;55.83;99789.63;409431;101;1986889;-73
2021/06/04 01:45:09;;;;;;;9.56;4.58;;;;;;;16.02;55.70;99796.76;352150;107;2361641;-74
2021/06/04 01:46:28;;;;;;;9.97;5.42;;;;;;;16.11;56.02;99797.21;397139;104;1985964;-73
2021/06/04 01:47:39;;;;;;;8.39;4.58;;;;;;;15.97;55.81;99793.92;379899;105;1961875;-73
2021/06/04 01:48:55;;;;;;;11.78;4.59;;;;;;;16.08;55.95;99796.88;394682;101;1984753;-72
2021/06/04 01:50:21;;;;;;;11.07;4.96;;;;;;;15.95;55.97;99800.67;379613;107;1960980;-74
2021/06/04 01:51:49;;;;;;;11.02;5.15;;;;;;;15.92;56.07;99791.08;373349;107;1961984;-75
2021/06/04 01:53:13;;;;;;;8.81;5.33;;;;;;;16.02;56.08;99796.76;409029;101;1986904;-74
2021/06/04 01:54:34;;;;;;;9.51;4.84;;;;;;;16.02;56.20;99799.48;392997;104;1985922;-75
2021/06/04 01:56:11;;;;;;;10.81;4.93;;;;;;;15.90;56.26;99806.00;353348;107;2333028;-74
2021/06/04 01:57:40;;;;;;;8.86;4.50;;;;;;;15.96;56.49;99796.90;364111;101;1986946;-72
2021/06/04 01:58:49;;;;;;;10.37;5.20;;;;;;;15.84;56.25;99785.99;382574;106;1961967;-73
2021/06/04 02:00:40;;;;;;;11.92;4.91;;;;;;;15.82;56.51;99799.02;377695;105;1964018;-73
2021/06/04 02:01:53;;;;;;;9.09;4.59;;;;;;;15.94;56.38;99794.40;403054;101;1986959;-73
2021/06/04 02:03:00;;;;;;;9.63;4.51;;;;;;;15.82;56.30;99794.42;313669;110;2120949;-73
2021/06/04 02:04:15;;;;;;;11.43;5.55;;;;;;;15.93;56.44;99800.92;393780;104;1964963;-73
2021/06/04 02:05:27;;;;;;;9.00;5.19;;;;;;;15.81;56.26;99800.09;374816;107;1969938;-74
2021/06/04 02:06:51;;;;;;;9.49;5.00;;;;;;;15.81;56.64;99800.91;377609;107;1964002;-74
2021/06/04 02:07:58;;;;;;;9.81;5.06;;;;;;;15.81;56.50;99797.36;367934;108;1961976;-75
2021/06/04 02:09:13;;;;;;;9.47;4.59;;;;;;;15.91;56.60;99800.33;395287;104;1972967;-74
2021/06/04 02:10:28;;;;;;;10.13;5.21;;;;;;;15.80;56.32;99798.44;377773;107;1961847;-74
2021/06/04 02:11:41;;;;;;;9.99;5.36;;;;;;;15.94;56.45;99804.47;385783;104;1985814;-73
2021/06/04 02:12:50;;;;;;;9.59;5.21;;;;;;;15.85;56.29;99803.16;325806;106;2827020;-74
2021/06/04 02:14:04;;;;;;;11.98;5.32;;;;;;;15.87;56.25;99798.31;369108;108;1961983;-72
2021/06/04 02:15:20;;;;;;;9.78;5.12;;;;;;;15.99;56.43;99805.41;374731;108;1985927;-71
2021/06/04 02:16:43;;;;;;;7.96;4.50;;;;;;;15.87;56.21;99796.41;356506;110;1962017;-71
2021/06/04 02:18:07;;;;;;;10.85;4.84;;;;;;;15.97;56.26;99802.09;331973;106;2160031;-74
2021/06/04 02:19:47;;;;;;;8.84;4.81;;;;;;;15.42;56.10;99728.89;330382;113;2463948;-74
2021/06/04 02:21:07;;;;;;;6.94;4.38;;;;;;;15.98;56.47;99797.47;383823;106;1962952;-73
2021/06/04 02:22:33;;;;;;;8.88;4.73;;;;;;;15.86;56.05;99802.11;367112;109;1961984;-75
2021/06/04 02:24:15;;;;;;;7.80;4.54;;;;;;;15.84;56.16;99796.89;352002;114;1962036;-72
2021/06/04 02:25:38;;;;;;;12.99;5.60;;;;;;;15.95;56.41;99806.12;396833;104;1987015;-75
2021/06/04 02:26:57;;;;;;;8.99;4.73;;;;;;;15.85;56.34;99800.44;379073;105;1961939;-75
2021/06/04 02:28:26;;;;;;;9.98;5.25;;;;;;;15.96;56.58;99803.17;342431;103;2821040;-74
2021/06/04 02:29:54;;;;;;;11.05;5.69;;;;;;;15.86;56.37;99807.56;374047;107;1963005;-75
2021/06/04 02:31:33;;;;;;;9.97;5.01;;;;;;;15.86;56.46;99807.56;373553;107;1961981;-74
2021/06/04 02:32:52;;;;;;;9.17;4.58;;;;;;;15.97;56.42;99802.09;361616;104;1984751;-74
2021/06/04 02:34:07;;;;;;;10.21;5.31;;;;;;;15.87;56.21;99801.86;344557;107;2432954;-73
2021/06/04 02:35:32;;;;;;;8.57;4.86;;;;;;;15.97;56.43;99806.72;389048;106;1986969;-73
2021/06/04 02:36:51;;;;;;;10.49;5.31;;;;;;;15.98;56.45;99806.49;394776;103;1986965;-73
2021/06/04 02:38:26;;;;;;;10.44;4.99;;;;;;;15.86;56.29;99802.94;374157;105;1961947;-74
2021/06/04 02:39:45;;;;;;;9.58;5.00;;;;;;;15.99;56.43;99807.31;397004;103;1986903;-74
2021/06/04 02:41:18;;;;;;;8.27;4.54;;;;;;;15.99;56.45;99804.59;396521;104;1986016;-71
2021/06/04 02:42:39;;;;;;;7.92;4.73;;;;;;;15.89;56.29;99805.18;379145;105;1962066;-71
2021/06/04 02:43:58;;;;;;;8.84;4.54;;;;;;;16.03;56.27;99805.75;365637;104;1985951;-75
2021/06/04 02:45:07;;;;;;;8.51;5.01;;;;;;;15.93;56.13;99808.25;374678;105;1961965;-73
2021/06/04 02:46:35;;;;;;;11.44;4.84;;;;;;;15.92;56.22;99804.70;307557;106;2216083;-74
2021/06/04 02:47:46;;;;;;;11.32;4.87;;;;;;;15.92;56.26;99801.97;369966;107;1964362;-74
2021/06/04 02:48:58;;;;;;;10.48;4.97;;;;;;;16.02;56.52;99801.38;412567;101;1985971;-73
2021/06/04 02:50:08;;;;;;;10.37;4.71;;;;;;;15.92;56.30;99806.59;386794;105;1962087;-73
2021/06/04 02:51:33;;;;;;;10.67;4.84;;;;;;;16.02;56.42;99802.20;398959;104;1985950;-75
2021/06/04 02:52:42;;;;;;;11.73;5.02;;;;;;;15.93;56.66;99802.80;372071;107;1963957;-73
2021/06/04 02:54:02;;;;;;;10.02;5.53;;;;;;;16.04;56.68;99804.70;398653;103;1987995;-73
2021/06/04 02:55:20;;;;;;;11.17;5.63;;;;;;;15.94;56.61;99808.02;377996;107;1961932;-74
2021/06/04 02:56:40;;;;;;;7.93;4.83;;;;;;;16.04;56.76;99805.53;397174;104;1986972;-73
2021/06/04 02:57:47;;;;;;;13.46;5.16;;;;;;;15.92;56.58;99807.42;321147;107;2874009;-74
2021/06/04 02:59:23;;;;;;;9.03;4.71;;;;;;;15.92;56.73;99806.59;371655;108;1961913;-73
2021/06/04 03:00:41;;;;;;;12.64;5.50;;;;;;;16.02;56.86;99812.28;385580;103;2920923;-73
2021/06/04 03:01:55;;;;;;;10.68;5.14;;;;;;;15.92;56.61;99812.88;375893;107;1962953;-73
2021/06/04 03:03:08;;;;;;;8.74;5.83;;;;;;;16.03;56.80;99809.30;392031;104;1985926;-72
2021/06/04 03:04:16;;;;;;;9.14;4.90;;;;;;;15.92;56.65;99814.77;377925;106;1961921;-74
2021/06/04 03:05:40;;;;;;;10.98;4.89;;;;;;;15.93;56.58;99810.97;377924;107;1961983;-73
2021/06/04 03:06:56;;;;;;;11.87;6.05;;;;;;;16.07;56.73;99808.85;376532;106;2080979;-73
2021/06/04 03:08:05;;;;;;;12.12;5.36;;;;;;;15.98;56.68;99811.94;364456;110;1964007;-74
2021/06/04 03:09:16;;;;;;;9.83;5.28;;;;;;;16.00;56.55;99803.52;355884;110;2926037;-73
2021/06/04 03:10:37;;;;;;;12.93;5.72;;;;;;;16.12;56.63;99807.06;391599;104;1985908;-74
2021/06/04 03:12:15;;;;;;;10.80;5.63;;;;;;;16.13;56.66;99802.44;397336;103;1986929;-73
2021/06/04 03:13:40;;;;;;;11.67;5.83;;;;;;;16.01;56.60;99807.91;375071;107;1962941;-73
2021/06/04 03:14:48;;;;;;;12.22;6.10;;;;;;;16.02;56.53;99812.28;374980;107;1961892;-72
2021/06/04 03:16:07;;;;;;;11.08;6.08;;;;;;;16.13;56.62;99805.16;387038;106;1985992;-74
2021/06/04 03:17:16;;;;;;;13.38;5.33;;;;;;;16.03;56.55;99814.75;364566;110;1961933;-74
2021/06/04 03:18:51;;;;;;;10.31;5.87;;;;;;;16.15;56.61;99806.58;361874;105;2071977;-74
2021/06/04 03:19:59;;;;;;;11.72;5.26;;;;;;;16.05;56.51;99807.17;324802;108;2723927;-75
2021/06/04 03:21:43;;;;;;;12.17;6.62;;;;;;;16.19;56.56;99798.74;412774;101;1961900;-72
2021/06/04 03:22:57;;;;;;;15.75;6.19;;;;;;;16.24;56.78;99804.31;388265;106;1994966;-75
2021/06/04 03:24:24;;;;;;;12.93;6.36;;;;;;;16.16;56.49;99819.13;368503;109;1961987;-72
2021/06/04 03:25:40;;;;;;;15.04;5.97;;;;;;;16.31;56.37;99815.09;396046;104;1985939;-73
2021/06/04 03:26:47;;;;;;;14.87;5.99;;;;;;;16.17;56.42;99814.53;375142;105;1961996;-74
2021/06/04 03:28:14;;;;;;;11.91;5.98;;;;;;;16.19;56.49;99810.47;370391;107;1961934;-73
2021/06/04 03:29:28;;;;;;;11.81;5.63;;;;;;;16.33;56.25;99807.52;390826;104;1985989;-74
2021/06/04 03:30:38;;;;;;;10.72;5.67;;;;;;;16.20;56.22;99812.15;374504;107;1962003;-74
2021/06/04 03:31:47;;;;;;;11.06;5.73;;;;;;;16.18;56.21;99814.28;357146;107;1961914;-74
2021/06/04 03:32:54;;;;;;;10.94;5.29;;;;;;;16.18;56.20;99810.73;352129;107;2384964;-74
2021/06/04 03:34:28;;;;;;;15.77;5.84;;;;;;;16.31;56.30;99809.64;412929;99;1986919;-74
2021/06/04 03:35:34;;;;;;;11.22;5.82;;;;;;;16.20;56.07;99809.42;366332;100;1963991;-75
2021/06/04 03:36:48;;;;;;;12.58;5.83;;;;;;;16.33;56.01;99804.79;390676;106;1986968;-75
2021/06/04 03:38:01;;;;;;;12.21;5.67;;;;;;;16.34;56.05;99811.89;395903;104;1987921;-75
2021/06/04 03:39:30;;;;;;;11.29;5.32;;;;;;;16.23;55.91;99814.39;374308;107;1962935;-73
2021/06/04 03:40:44;;;;;;;11.58;5.38;;;;;;;16.36;55.95;99810.58;347606;106;2623021;-75
2021/06/04 03:41:52;;;;;;;8.94;5.31;;;;;;;16.26;55.82;99819.36;367707;110;1961940;-75
2021/06/04 03:43:19;;;;;;;14.50;5.86;;;;;;;16.28;55.86;99812.86;360531;111;1961061;-74
2021/06/04 03:44:35;;;;;;;10.78;5.33;;;;;;;16.38;55.80;99813.90;389378;106;1985964;-75
2021/06/04 03:45:43;;;;;;;8.60;5.19;;;;;;;16.28;55.83;99816.41;369840;107;1960985;-75
2021/06/04 03:46:55;;;;;;;7.75;4.96;;;;;;;16.39;55.72;99807.37;390110;104;1984940;-74
2021/06/04 03:48:02;;;;;;;9.39;4.92;;;;;;;16.30;55.67;99810.70;378545;106;1961804;-75
2021/06/04 03:49:26;;;;;;;10.41;5.39;;;;;;;16.30;55.60;99807.97;377760;106;1961055;-74
2021/06/04 03:50:34;;;;;;;11.47;5.58;;;;;;;16.30;55.57;99807.97;378289;106;1961037;-75
2021/06/04 03:51:42;;;;;;;11.18;5.98;;;;;;;16.28;55.63;99805.50;366207;106;1960955;-75
2021/06/04 03:52:55;;;;;;;11.81;5.35;;;;;;;16.38;55.66;99797.55;363289;106;2384013;-75
2021/06/04 03:54:02;;;;;;;9.54;5.23;;;;;;;16.28;55.66;99807.41;366120;109;1960762;-74
2021/06/04 03:55:17;;;;;;;9.56;5.54;;;;;;;16.34;55.88;99811.89;338045;106;2112967;-74
2021/06/04 03:56:26;;;;;;;9.16;4.88;;;;;;;16.22;56.08;99800.98;324745;109;2769042;-73
2021/06/04 03:57:53;;;;;;;7.75;4.92;;;;;;;16.21;55.87;99805.61;361710;109;1962007;-74
2021/06/04 03:59:07;;;;;;;12.17;5.35;;;;;;;16.31;56.48;99805.02;393724;104;1993903;-75
2021/06/04 04:00:24;;;;;;;13.53;5.91;;;;;;;16.18;56.37;99813.45;372995;107;1962954;-75
2021/06/04 04:01:47;;;;;;;11.82;4.94;;;;;;;16.30;56.42;99805.24;397950;104;1965977;-75
2021/06/04 04:02:54;;;;;;;9.55;5.42;;;;;;;16.19;56.26;99809.65;369831;108;1965056;-75
2021/06/04 04:04:38;;;;;;;12.22;6.34;;;;;;;16.19;56.31;99810.47;370915;108;1962943;-75
2021/06/04 04:05:45;;;;;;;11.53;5.49;;;;;;;16.18;56.50;99805.27;362086;110;1961962;-72
2021/06/04 04:06:51;;;;;;;9.25;5.38;;;;;;;16.17;56.61;99807.18;327297;107;1960843;-72
2021/06/04 04:08:06;;;;;;;12.02;5.82;;;;;;;16.26;56.80;99804.91;393595;104;1972040;-76
2021/06/04 04:09:12;;;;;;;14.45;5.84;;;;;;;16.14;56.77;99809.53;369544;107;1960862;-75
2021/06/04 04:10:26;;;;;;;10.56;5.53;;;;;;;16.24;57.06;99801.58;393018;103;1962050;-75
2021/06/04 04:11:32;;;;;;;9.92;5.53;;;;;;;16.12;56.91;99811.69;376720;105;1972134;-74
2021/06/04 04:12:56;;;;;;;12.65;6.35;;;;;;;16.11;56.94;99802.66;348380;107;2332842;-74
2021/06/04 04:14:09;;;;;;;11.06;5.43;;;;;;;16.21;57.29;99810.25;399226;104;1961006;-74
2021/06/04 04:15:18;;;;;;;12.93;6.20;;;;;;;16.14;57.25;99806.81;375014;107;1961982;-74
2021/06/04 04:16:26;;;;;;;15.24;6.09;;;;;;;16.13;57.25;99811.44;326486;105;2802056;-74
2021/06/04 04:17:31;;;;;;;15.87;7.68;;;;;;;16.16;57.29;99810.13;367152;106;1963971;-75
2021/06/04 04:18:39;;;;;;;15.32;6.98;;;;;;;16.19;57.37;99815.10;378684;107;1961961;-75
2021/06/04 04:19:51;;;;;;;22.38;11.71;;;;;;;16.35;57.45;99816.26;325319;104;2278002;-73
2021/06/04 04:21:00;;;;;;;19.04;9.79;;;;;;;16.26;57.39;99813.08;365078;105;1961932;-75
2021/06/04 04:22:19;;;;;;;14.48;7.13;;;;;;;16.41;57.47;99813.41;409385;101;1985915;-72
2021/06/04 04:23:34;;;;;;;18.14;7.81;;;;;;;16.33;57.55;99816.52;379570;107;1964984;-72
2021/06/04 04:24:40;;;;;;;12.30;6.80;;;;;;;16.37;57.44;99812.22;383651;105;1963967;-73
2021/06/04 04:25:46;;;;;;;12.50;6.14;;;;;;;16.40;57.45;99814.47;335987;105;2771968;-74
2021/06/04 04:26:59;;;;;;;11.51;6.54;;;;;;;16.56;57.16;99820.23;384641;106;1962102;-75
2021/06/04 04:28:08;;;;;;;13.06;7.22;;;;;;;16.47;57.00;99819.80;358117;112;1968860;-74
2021/06/04 04:29:15;;;;;;;10.42;6.37;;;;;;;16.46;57.31;99818.16;362923;111;1962029;-72
2021/06/04 04:30:22;;;;;;;11.94;6.10;;;;;;;16.45;57.55;99820.03;327115;113;2467929;-74
2021/06/04 04:31:31;;;;;;;15.08;7.24;;;;;;;16.45;57.18;99822.75;354829;113;1961960;-74
2021/06/04 04:32:44;;;;;;;14.18;6.59;;;;;;;16.60;57.41;99819.52;393509;104;1986970;-73
2021/06/04 04:33:52;;;;;;;11.92;6.91;;;;;;;16.51;57.25;99820.95;369200;108;1960934;-74
2021/06/04 04:35:08;;;;;;;17.06;8.60;;;;;;;16.67;57.24;99820.22;396651;104;1986880;-74
2021/06/04 04:36:17;;;;;;;13.85;7.13;;;;;;;16.64;57.31;99814.41;372521;108;1961952;-75
2021/06/04 04:37:41;;;;;;;16.42;7.20;;;;;;;16.72;57.22;99822.20;379838;105;1964896;-75
2021/06/04 04:38:47;;;;;;;14.74;7.06;;;;;;;16.78;57.00;99818.55;323930;105;2852036;-74
2021/06/04 04:39:52;;;;;;;13.90;7.24;;;;;;;16.83;57.05;99824.11;327539;113;1961900;-73
2021/06/04 04:41:08;;;;;;;18.39;8.38;;;;;;;17.06;57.00;99825.89;396711;104;1985901;-75
2021/06/04 04:42:19;;;;;;;11.52;5.56;;;;;;;17.00;56.94;99826.06;362539;110;1961936;-75
2021/06/04 04:43:38;;;;;;;15.62;7.16;;;;;;;17.22;56.70;99817.98;390954;106;1985992;-75
2021/06/04 04:44:44;;;;;;;;;;;;;;;17.17;56.48;99824.17;352618;108;1961000;-75
2021/06/04 04:45:50;;;;;;;12.33;6.71;;;;;;;17.22;56.49;99821.54;366702;108;1960876;-75
2021/06/04 04:46:57;;;;;;;16.53;8.00;;;;;;;17.29;56.29;99815.94;367183;109;1961036;-73
2021/06/04 04:48:11;;;;;;;12.92;6.19;;;;;;;17.49;56.20;99821.76;397101;101;1960919;-72
2021/06/04 04:49:17;;;;;;;20.53;6.96;;;;;;;17.50;55.87;99817.94;374249;107;1961840;-72
2021/06/04 04:50:25;;;;;;;13.96;7.05;;;;;;;17.64;55.62;99820.34;343959;106;1960817;-72
2021/06/04 04:51:32;;;;;;;21.87;8.34;;;;;;;17.76;55.37;99819.18;376841;106;1963918;-72
2021/06/04 04:52:39;;;;;;;20.83;6.24;;;;;;;17.90;55.10;99819.69;303869;106;2241917;-72
2021/06/04 04:53:51;;;;;;;13.91;6.07;;;;;;;18.15;54.61;99823.86;392810;104;1961973;-74
2021/06/04 04:54:58;;;;;;;10.31;5.34;;;;;;;18.14;54.38;99812.11;374480;105;1968923;-74
2021/06/04 04:56:06;;;;;;;11.09;6.03;;;;;;;18.26;53.84;99825.69;353962;105;2387941;-73
2021/06/04 04:57:19;;;;;;;16.72;6.76;;;;;;;18.50;53.78;99809.86;376733;104;2368011;-75
2021/06/04 04:58:25;;;;;;;15.38;6.59;;;;;;;18.51;53.62;99816.97;375306;107;1961885;-75
2021/06/04 04:59:39;;;;;;;14.17;7.30;;;;;;;18.75;53.08;99816.73;377431;108;2070720;-75
2021/06/04 05:00:46;;;;;;;17.27;7.09;;;;;;;18.73;53.01;99814.21;359292;112;1960916;-75
2021/06/04 05:02:11;;;;;;;15.27;6.39;;;;;;;18.79;52.82;99820.63;359519;112;1961976;-75
2021/06/04 05:03:26;;;;;;;16.83;6.98;;;;;;;19.00;52.30;99827.13;395395;103;1960793;-75
2021/06/04 05:04:32;;;;;;;14.96;6.23;;;;;;;18.95;52.32;99821.62;374226;107;1968927;-75
2021/06/04 05:05:53;;;;;;;13.86;6.66;;;;;;;19.13;51.86;99818.50;343018;103;2842792;-75
2021/06/04 05:07:00;;;;;;;12.36;6.74;;;;;;;19.08;51.63;99821.22;347600;107;2893080;-75
2021/06/04 05:08:06;;;;;;;10.99;5.45;;;;;;;19.15;51.51;99816.34;353527;110;1961791;-76
2021/06/04 05:09:12;;;;;;;10.64;6.12;;;;;;;19.22;51.30;99833.39;358051;112;1961077;-74
2021/06/04 05:10:26;;;;;;;15.04;6.06;;;;;;;19.35;50.88;99828.59;353479;103;2697950;-74
2021/06/04 05:11:31;;;;;;;12.23;5.24;;;;;;;19.28;51.22;99820.58;372333;107;1961990;-75
2021/06/04 05:12:48;;;;;;;12.87;6.17;;;;;;;19.42;50.43;99821.79;390675;104;1986857;-75
2021/06/04 05:13:53;;;;;;;23.54;8.32;;;;;;;19.32;50.86;99824.46;371345;108;1961889;-74
2021/06/04 05:15:20;;;;;;;17.02;7.89;;;;;;;19.36;50.79;99824.76;355537;108;1962026;-74
2021/06/04 05:16:32;;;;;;;12.31;6.14;;;;;;;19.51;50.77;99828.46;400142;104;1986988;-75
2021/06/04 05:17:37;;;;;;;14.55;6.16;;;;;;;19.39;50.67;99822.31;380792;105;1961815;-75
2021/06/04 05:18:57;;;;;;;12.31;5.41;;;;;;;19.57;50.71;99823.03;391590;104;1986920;-75
2021/06/04 05:20:04;;;;;;;11.49;5.42;;;;;;;19.55;50.33;99817.80;375798;105;1961984;-73
2021/06/04 05:21:12;;;;;;;14.09;6.54;;;;;;;19.65;50.12;99822.54;375714;107;1961957;-73
2021/06/04 05:22:25;;;;;;;11.11;4.62;;;;;;;19.81;49.88;99818.03;405435;101;1985960;-76
2021/06/04 05:23:37;;;;;;;15.64;5.37;;;;;;;19.80;49.00;99817.21;366223;104;2072988;-75
2021/06/04 05:24:44;;;;;;;7.61;3.93;;;;;;;19.69;49.35;99812.75;356763;107;1961014;-75
2021/06/04 05:26:16;;;;;;;11.39;5.07;;;;;;;19.78;48.25;99821.30;388592;105;2072996;-72
2021/06/04 05:27:22;;;;;;;12.42;4.50;;;;;;;19.70;48.43;99817.13;366497;109;1962060;-73
2021/06/04 05:28:56;;;;;;;11.34;4.79;;;;;;;19.68;48.51;99816.56;360544;111;1960850;-73
2021/06/04 05:30:05;;;;;;;13.36;4.43;;;;;;;19.71;47.85;99819.63;365330;111;1964000;-73
2021/06/04 05:31:19;;;;;;;15.33;5.64;;;;;;;19.88;48.17;99824.13;328611;104;2304948;-76
2021/06/04 05:32:35;;;;;;;16.04;8.07;;;;;;;19.76;48.47;99816.89;376656;105;1962034;-75
2021/06/04 05:33:43;;;;;;;15.24;7.00;;;;;;;19.82;48.38;99817.78;372934;107;1962916;-73
2021/06/04 05:34:55;;;;;;;16.82;7.08;;;;;;;20.05;47.69;99823.95;398863;104;1985919;-75
2021/06/04 05:36:04;;;;;;;11.89;4.88;;;;;;;20.01;46.36;99822.84;374176;103;1962281;-72
2021/06/04 05:37:36;;;;;;;8.47;3.61;;;;;;;20.13;44.67;99816.04;411057;99;1985985;-74
2021/06/04 05:38:43;;;;;;;10.21;3.64;;;;;;;20.07;44.18;99824.52;388347;102;1961998;-73
2021/06/04 05:40:10;;;;;;;8.36;3.56;;;;;;;20.09;44.15;99816.86;388442;102;1960797;-73
2021/06/04 05:41:24;;;;;;;13.23;4.34;;;;;;;20.27;43.88;99815.56;400891;104;1985956;-75
2021/06/04 05:42:32;;;;;;;10.64;4.86;;;;;;;20.19;43.94;99825.12;366717;107;1962019;-75
2021/06/04 05:44:04;;;;;;;11.19;4.86;;;;;;;20.37;43.65;99816.44;383953;105;1985973;-74
2021/06/04 05:45:13;;;;;;;13.51;4.62;;;;;;;20.30;43.75;99821.36;323155;108;2762927;-75
2021/06/04 05:46:42;;;;;;;12.39;5.76;;;;;;;20.35;43.47;99815.05;366970;109;1961957;-75
2021/06/04 05:47:55;;;;;;;9.69;3.48;;;;;;;20.43;43.00;99820.06;401941;102;1985932;-74
2021/06/04 05:49:01;;;;;;;9.03;4.05;;;;;;;20.28;42.76;99819.98;370289;105;2875906;-75